Terminal Aerodrome Forecast
Issued by NWS Tampa Bay Area, FL

Home | Current Version | Previous Version | Text Only | Print | Product List | Glossary On
Versions: 1 2 3 4 5 6 7 8 9 10 11 12 13 14 15 16 17 18 19 20 21 22 23 24 25 26
000
FTUS42 KTBW 231100
TAFTPA
TAF
KTPA 231128Z 2312/2412 VRB03KT P6SM SKC
     FM231500 26006KT P6SM SCT030 SCT250
     FM232000 30007KT P6SM VCTS SCT045CB SCT120 BKN250
     FM240000 VRB04KT P6SM FEW035 BKN250=

USA.gov is the U.S. government's official web portal to all federal, state and local government web resources and services.